sensor_id;sensor_type;location;lat;lon;timestamp;P1;durP1;ratioP1;P2;durP2;ratioP2
25107;SDS011;13090;53.422;7.670;2023-04-01T00:01:49;8.98;;;7.30;;
25107;SDS011;13090;53.422;7.670;2023-04-01T00:06:52;9.13;;;7.07;;
25107;SDS011;13090;53.422;7.670;2023-04-01T00:11:55;9.73;;;6.22;;
25107;SDS011;13090;53.422;7.670;2023-04-01T00:16:57;10.10;;;7.28;;
25107;SDS011;13090;53.422;7.670;2023-04-01T00:21:59;9.07;;;7.03;;
25107;SDS011;13090;53.422;7.670;2023-04-01T00:27:03;12.02;;;7.20;;
25107;SDS011;13090;53.422;7.670;2023-04-01T00:32:06;9.40;;;7.60;;
25107;SDS011;13090;53.422;7.670;2023-04-01T00:37:09;11.05;;;8.32;;
25107;SDS011;13090;53.422;7.670;2023-04-01T00:42:12;11.23;;;8.43;;
25107;SDS011;13090;53.422;7.670;2023-04-01T00:47:15;13.63;;;9.50;;
25107;SDS011;13090;53.422;7.670;2023-04-01T00:52:17;14.43;;;9.73;;
25107;SDS011;13090;53.422;7.670;2023-04-01T00:57:27;16.38;;;9.18;;
25107;SDS011;13090;53.422;7.670;2023-04-01T01:02:32;12.65;;;9.75;;
25107;SDS011;13090;53.422;7.670;2023-04-01T01:07:37;16.27;;;10.85;;
25107;SDS011;13090;53.422;7.670;2023-04-01T01:12:49;16.60;;;10.40;;
25107;SDS011;13090;53.422;7.670;2023-04-01T01:18:00;15.25;;;11.15;;
25107;SDS011;13090;53.422;7.670;2023-04-01T01:28:37;14.57;;;11.80;;
25107;SDS011;13090;53.422;7.670;2023-04-01T01:33:59;18.77;;;11.95;;
25107;SDS011;13090;53.422;7.670;2023-04-01T01:39:14;17.92;;;13.25;;
25107;SDS011;13090;53.422;7.670;2023-04-01T01:44:18;16.90;;;11.73;;
25107;SDS011;13090;53.422;7.670;2023-04-01T01:49:22;17.42;;;13.05;;
25107;SDS011;13090;53.422;7.670;2023-04-01T01:54:27;20.33;;;15.25;;
25107;SDS011;13090;53.422;7.670;2023-04-01T01:59:30;19.73;;;14.52;;
25107;SDS011;13090;53.422;7.670;2023-04-01T02:04:35;21.45;;;14.70;;
25107;SDS011;13090;53.422;7.670;2023-04-01T02:09:43;18.08;;;14.35;;
25107;SDS011;13090;53.422;7.670;2023-04-01T02:14:46;20.67;;;14.90;;
25107;SDS011;13090;53.422;7.670;2023-04-01T02:19:56;17.52;;;13.45;;
25107;SDS011;13090;53.422;7.670;2023-04-01T02:25:02;22.00;;;14.85;;
25107;SDS011;13090;53.422;7.670;2023-04-01T02:30:08;19.90;;;15.23;;
25107;SDS011;13090;53.422;7.670;2023-04-01T02:35:12;19.02;;;14.23;;
25107;SDS011;13090;53.422;7.670;2023-04-01T02:40:18;19.98;;;14.18;;
25107;SDS011;13090;53.422;7.670;2023-04-01T02:45:20;19.50;;;13.65;;
25107;SDS011;13090;53.422;7.670;2023-04-01T02:50:22;17.75;;;13.80;;
25107;SDS011;13090;53.422;7.670;2023-04-01T02:55:26;14.50;;;11.60;;
25107;SDS011;13090;53.422;7.670;2023-04-01T03:00:28;17.65;;;13.38;;
25107;SDS011;13090;53.422;7.670;2023-04-01T03:05:31;18.30;;;14.70;;
25107;SDS011;13090;53.422;7.670;2023-04-01T03:10:35;16.77;;;12.88;;
25107;SDS011;13090;53.422;7.670;2023-04-01T03:15:37;18.48;;;13.02;;
25107;SDS011;13090;53.422;7.670;2023-04-01T03:20:39;21.40;;;12.48;;
25107;SDS011;13090;53.422;7.670;2023-04-01T03:25:42;15.57;;;12.48;;
25107;SDS011;13090;53.422;7.670;2023-04-01T03:30:45;16.52;;;12.55;;
25107;SDS011;13090;53.422;7.670;2023-04-01T03:35:47;16.48;;;13.18;;
25107;SDS011;13090;53.422;7.670;2023-04-01T03:40:50;18.20;;;12.23;;
25107;SDS011;13090;53.422;7.670;2023-04-01T03:45:53;16.13;;;12.88;;
25107;SDS011;13090;53.422;7.670;2023-04-01T03:50:55;15.27;;;12.43;;
25107;SDS011;13090;53.422;7.670;2023-04-01T03:56:02;16.95;;;13.07;;
25107;SDS011;13090;53.422;7.670;2023-04-01T04:01:13;16.98;;;13.23;;
25107;SDS011;13090;53.422;7.670;2023-04-01T04:06:16;18.20;;;12.32;;
25107;SDS011;13090;53.422;7.670;2023-04-01T04:11:21;16.58;;;12.75;;
25107;SDS011;13090;53.422;7.670;2023-04-01T04:16:24;15.80;;;11.57;;
25107;SDS011;13090;53.422;7.670;2023-04-01T04:21:27;15.98;;;11.68;;
25107;SDS011;13090;53.422;7.670;2023-04-01T04:26:30;16.83;;;12.00;;
25107;SDS011;13090;53.422;7.670;2023-04-01T04:31:32;19.65;;;14.60;;
25107;SDS011;13090;53.422;7.670;2023-04-01T04:36:35;17.80;;;13.60;;
25107;SDS011;13090;53.422;7.670;2023-04-01T04:41:38;16.52;;;12.48;;
25107;SDS011;13090;53.422;7.670;2023-04-01T04:46:42;16.23;;;12.05;;
25107;SDS011;13090;53.422;7.670;2023-04-01T04:51:44;18.23;;;13.25;;
25107;SDS011;13090;53.422;7.670;2023-04-01T04:56:48;20.48;;;14.38;;
25107;SDS011;13090;53.422;7.670;2023-04-01T05:01:52;16.33;;;12.20;;
25107;SDS011;13090;53.422;7.670;2023-04-01T05:06:54;18.27;;;12.50;;
25107;SDS011;13090;53.422;7.670;2023-04-01T05:11:58;14.63;;;11.48;;
25107;SDS011;13090;53.422;7.670;2023-04-01T05:17:00;19.08;;;14.70;;
25107;SDS011;13090;53.422;7.670;2023-04-01T05:22:02;19.55;;;12.35;;
25107;SDS011;13090;53.422;7.670;2023-04-01T05:27:06;19.55;;;13.63;;
25107;SDS011;13090;53.422;7.670;2023-04-01T05:32:08;19.58;;;13.98;;
25107;SDS011;13090;53.422;7.670;2023-04-01T05:37:10;22.83;;;14.07;;
25107;SDS011;13090;53.422;7.670;2023-04-01T05:42:14;17.27;;;12.68;;
25107;SDS011;13090;53.422;7.670;2023-04-01T05:47:16;16.67;;;12.65;;
25107;SDS011;13090;53.422;7.670;2023-04-01T05:52:18;17.92;;;13.30;;
25107;SDS011;13090;53.422;7.670;2023-04-01T05:57:22;19.10;;;13.52;;
25107;SDS011;13090;53.422;7.670;2023-04-01T06:02:24;19.15;;;13.70;;
25107;SDS011;13090;53.422;7.670;2023-04-01T06:07:27;18.73;;;13.18;;
25107;SDS011;13090;53.422;7.670;2023-04-01T06:12:38;19.23;;;13.30;;
25107;SDS011;13090;53.422;7.670;2023-04-01T06:17:50;17.97;;;12.93;;
25107;SDS011;13090;53.422;7.670;2023-04-01T06:28:38;17.77;;;12.77;;
25107;SDS011;13090;53.422;7.670;2023-04-01T06:34:08;16.17;;;12.25;;
25107;SDS011;13090;53.422;7.670;2023-04-01T06:39:27;15.57;;;11.30;;
25107;SDS011;13090;53.422;7.670;2023-04-01T06:44:48;13.75;;;10.38;;
25107;SDS011;13090;53.422;7.670;2023-04-01T06:50:03;18.87;;;11.53;;
25107;SDS011;13090;53.422;7.670;2023-04-01T06:55:17;13.68;;;10.38;;
25107;SDS011;13090;53.422;7.670;2023-04-01T07:00:29;19.92;;;12.25;;
25107;SDS011;13090;53.422;7.670;2023-04-01T07:05:34;16.08;;;11.45;;
25107;SDS011;13090;53.422;7.670;2023-04-01T07:10:40;18.85;;;11.63;;
25107;SDS011;13090;53.422;7.670;2023-04-01T07:15:54;15.70;;;10.95;;
25107;SDS011;13090;53.422;7.670;2023-04-01T07:21:09;16.10;;;11.77;;
25107;SDS011;13090;53.422;7.670;2023-04-01T07:26:19;20.13;;;14.90;;
25107;SDS011;13090;53.422;7.670;2023-04-01T07:31:28;16.17;;;12.52;;
25107;SDS011;13090;53.422;7.670;2023-04-01T07:36:44;13.30;;;9.82;;
25107;SDS011;13090;53.422;7.670;2023-04-01T07:41:52;4.28;;;2.78;;
25107;SDS011;13090;53.422;7.670;2023-04-01T07:47:05;2.33;;;1.80;;
25107;SDS011;13090;53.422;7.670;2023-04-01T07:52:36;2.78;;;2.30;;
25107;SDS011;13090;53.422;7.670;2023-04-01T07:57:47;1.40;;;1.30;;
25107;SDS011;13090;53.422;7.670;2023-04-01T08:03:03;2.72;;;1.20;;
25107;SDS011;13090;53.422;7.670;2023-04-01T08:08:19;2.75;;;1.50;;
25107;SDS011;13090;53.422;7.670;2023-04-01T08:13:33;1.90;;;1.48;;
25107;SDS011;13090;53.422;7.670;2023-04-01T08:18:43;1.70;;;1.60;;
25107;SDS011;13090;53.422;7.670;2023-04-01T08:23:54;1.15;;;1.05;;
25107;SDS011;13090;53.422;7.670;2023-04-01T08:28:59;1.50;;;1.27;;
25107;SDS011;13090;53.422;7.670;2023-04-01T08:34:08;2.45;;;1.40;;
25107;SDS011;13090;53.422;7.670;2023-04-01T08:39:16;1.58;;;1.10;;
25107;SDS011;13090;53.422;7.670;2023-04-01T08:44:36;2.22;;;1.33;;
25107;SDS011;13090;53.422;7.670;2023-04-01T08:50:04;1.02;;;0.80;;
25107;SDS011;13090;53.422;7.670;2023-04-01T08:55:49;1.38;;;1.27;;
25107;SDS011;13090;53.422;7.670;2023-04-01T09:01:07;1.42;;;1.20;;
25107;SDS011;13090;53.422;7.670;2023-04-01T09:06:28;2.38;;;1.10;;
25107;SDS011;13090;53.422;7.670;2023-04-01T09:11:43;1.90;;;1.30;;
25107;SDS011;13090;53.422;7.670;2023-04-01T09:17:17;1.40;;;1.25;;
25107;SDS011;13090;53.422;7.670;2023-04-01T09:22:53;1.10;;;1.08;;
25107;SDS011;13090;53.422;7.670;2023-04-01T09:28:12;1.50;;;1.40;;
25107;SDS011;13090;53.422;7.670;2023-04-01T09:38:54;3.25;;;1.75;;
25107;SDS011;13090;53.422;7.670;2023-04-01T09:44:00;1.98;;;1.73;;
25107;SDS011;13090;53.422;7.670;2023-04-01T09:49:12;3.13;;;1.80;;
25107;SDS011;13090;53.422;7.670;2023-04-01T09:54:41;1.70;;;1.42;;
25107;SDS011;13090;53.422;7.670;2023-04-01T10:22:32;2.95;;;1.60;;
25107;SDS011;13090;53.422;7.670;2023-04-01T10:28:00;1.40;;;1.30;;
25107;SDS011;13090;53.422;7.670;2023-04-01T10:33:38;1.35;;;1.25;;
25107;SDS011;13090;53.422;7.670;2023-04-01T10:50:26;1.30;;;1.17;;
25107;SDS011;13090;53.422;7.670;2023-04-01T10:56:11;1.02;;;0.93;;
25107;SDS011;13090;53.422;7.670;2023-04-01T11:01:44;1.87;;;1.10;;
25107;SDS011;13090;53.422;7.670;2023-04-01T11:13:21;1.90;;;1.50;;
25107;SDS011;13090;53.422;7.670;2023-04-01T11:18:53;1.20;;;1.10;;
25107;SDS011;13090;53.422;7.670;2023-04-01T11:24:31;1.50;;;1.30;;
25107;SDS011;13090;53.422;7.670;2023-04-01T11:29:48;1.85;;;1.40;;
25107;SDS011;13090;53.422;7.670;2023-04-01T11:35:06;1.50;;;1.33;;
25107;SDS011;13090;53.422;7.670;2023-04-01T11:40:33;2.65;;;1.10;;
25107;SDS011;13090;53.422;7.670;2023-04-01T11:45:42;1.60;;;1.30;;
25107;SDS011;13090;53.422;7.670;2023-04-01T11:50:58;2.40;;;1.50;;
25107;SDS011;13090;53.422;7.670;2023-04-01T11:56:17;1.42;;;1.20;;
25107;SDS011;13090;53.422;7.670;2023-04-01T12:01:34;1.20;;;1.10;;
25107;SDS011;13090;53.422;7.670;2023-04-01T12:06:47;1.20;;;1.10;;
25107;SDS011;13090;53.422;7.670;2023-04-01T12:11:57;1.00;;;0.90;;
25107;SDS011;13090;53.422;7.670;2023-04-01T12:17:13;0.98;;;0.95;;
25107;SDS011;13090;53.422;7.670;2023-04-01T12:22:33;1.20;;;1.10;;
25107;SDS011;13090;53.422;7.670;2023-04-01T12:27:47;1.30;;;1.10;;
25107;SDS011;13090;53.422;7.670;2023-04-01T12:33:02;0.95;;;0.88;;
25107;SDS011;13090;53.422;7.670;2023-04-01T12:38:20;0.75;;;0.75;;
25107;SDS011;13090;53.422;7.670;2023-04-01T12:49:15;1.10;;;1.00;;
25107;SDS011;13090;53.422;7.670;2023-04-01T12:55:01;3.58;;;1.25;;
25107;SDS011;13090;53.422;7.670;2023-04-01T13:00:26;0.93;;;0.80;;
25107;SDS011;13090;53.422;7.670;2023-04-01T13:06:07;0.80;;;0.80;;
25107;SDS011;13090;53.422;7.670;2023-04-01T13:11:30;1.10;;;1.00;;
25107;SDS011;13090;53.422;7.670;2023-04-01T13:16:41;1.02;;;0.93;;
25107;SDS011;13090;53.422;7.670;2023-04-01T13:21:55;1.13;;;1.00;;
25107;SDS011;13090;53.422;7.670;2023-04-01T13:27:08;1.20;;;1.10;;
25107;SDS011;13090;53.422;7.670;2023-04-01T13:32:18;1.45;;;0.98;;
25107;SDS011;13090;53.422;7.670;2023-04-01T13:37:48;1.60;;;1.40;;
25107;SDS011;13090;53.422;7.670;2023-04-01T13:42:59;1.70;;;1.55;;
25107;SDS011;13090;53.422;7.670;2023-04-01T13:48:15;2.75;;;1.70;;
25107;SDS011;13090;53.422;7.670;2023-04-01T13:53:37;1.60;;;1.35;;
25107;SDS011;13090;53.422;7.670;2023-04-01T13:59:11;3.35;;;1.60;;
25107;SDS011;13090;53.422;7.670;2023-04-01T14:04:53;3.65;;;1.80;;
25107;SDS011;13090;53.422;7.670;2023-04-01T14:10:16;2.97;;;1.80;;
25107;SDS011;13090;53.422;7.670;2023-04-01T14:15:36;5.45;;;2.47;;
25107;SDS011;13090;53.422;7.670;2023-04-01T14:20:56;3.58;;;2.20;;
25107;SDS011;13090;53.422;7.670;2023-04-01T14:32:09;6.68;;;3.22;;
25107;SDS011;13090;53.422;7.670;2023-04-01T14:43:06;6.25;;;3.05;;
25107;SDS011;13090;53.422;7.670;2023-04-01T14:48:28;4.10;;;2.90;;
25107;SDS011;13090;53.422;7.670;2023-04-01T14:53:37;5.70;;;3.40;;
25107;SDS011;13090;53.422;7.670;2023-04-01T14:58:45;6.57;;;3.33;;
25107;SDS011;13090;53.422;7.670;2023-04-01T15:03:51;5.60;;;3.67;;
25107;SDS011;13090;53.422;7.670;2023-04-01T15:09:05;7.22;;;4.38;;
25107;SDS011;13090;53.422;7.670;2023-04-01T15:14:23;11.73;;;4.90;;
25107;SDS011;13090;53.422;7.670;2023-04-01T15:19:42;6.20;;;4.45;;
25107;SDS011;13090;53.422;7.670;2023-04-01T15:30:33;7.75;;;4.07;;
25107;SDS011;13090;53.422;7.670;2023-04-01T15:35:42;7.93;;;3.47;;
25107;SDS011;13090;53.422;7.670;2023-04-01T15:40:51;8.07;;;3.88;;
25107;SDS011;13090;53.422;7.670;2023-04-01T15:45:58;7.28;;;3.90;;
25107;SDS011;13090;53.422;7.670;2023-04-01T15:51:23;8.32;;;4.05;;
25107;SDS011;13090;53.422;7.670;2023-04-01T15:56:43;7.63;;;3.42;;
25107;SDS011;13090;53.422;7.670;2023-04-01T16:07:07;7.13;;;3.63;;
25107;SDS011;13090;53.422;7.670;2023-04-01T16:12:18;5.20;;;3.03;;
25107;SDS011;13090;53.422;7.670;2023-04-01T16:17:31;5.45;;;2.88;;
25107;SDS011;13090;53.422;7.670;2023-04-01T16:22:57;7.70;;;3.88;;
25107;SDS011;13090;53.422;7.670;2023-04-01T16:28:09;5.70;;;3.42;;
25107;SDS011;13090;53.422;7.670;2023-04-01T16:33:22;8.73;;;3.85;;
25107;SDS011;13090;53.422;7.670;2023-04-01T16:38:35;8.75;;;3.42;;
25107;SDS011;13090;53.422;7.670;2023-04-01T16:43:42;7.35;;;3.10;;
25107;SDS011;13090;53.422;7.670;2023-04-01T16:48:52;13.45;;;4.53;;
25107;SDS011;13090;53.422;7.670;2023-04-01T16:54:04;8.93;;;3.80;;
25107;SDS011;13090;53.422;7.670;2023-04-01T16:59:14;8.50;;;3.80;;
25107;SDS011;13090;53.422;7.670;2023-04-01T17:04:29;6.85;;;3.38;;
25107;SDS011;13090;53.422;7.670;2023-04-01T17:09:41;8.60;;;3.97;;
25107;SDS011;13090;53.422;7.670;2023-04-01T17:14:59;10.10;;;3.50;;
25107;SDS011;13090;53.422;7.670;2023-04-01T17:20:13;9.95;;;4.25;;
25107;SDS011;13090;53.422;7.670;2023-04-01T17:25:34;10.00;;;4.30;;
25107;SDS011;13090;53.422;7.670;2023-04-01T17:30:42;7.90;;;3.88;;
25107;SDS011;13090;53.422;7.670;2023-04-01T17:35:57;8.50;;;3.70;;
25107;SDS011;13090;53.422;7.670;2023-04-01T17:41:03;11.70;;;4.00;;
25107;SDS011;13090;53.422;7.670;2023-04-01T17:46:21;9.57;;;4.60;;
25107;SDS011;13090;53.422;7.670;2023-04-01T17:51:33;10.02;;;4.15;;
25107;SDS011;13090;53.422;7.670;2023-04-01T17:56:47;11.57;;;5.05;;
25107;SDS011;13090;53.422;7.670;2023-04-01T18:02:01;10.05;;;4.30;;
25107;SDS011;13090;53.422;7.670;2023-04-01T18:07:23;8.63;;;4.45;;
25107;SDS011;13090;53.422;7.670;2023-04-01T18:13:00;6.53;;;3.78;;
25107;SDS011;13090;53.422;7.670;2023-04-01T18:18:19;9.20;;;4.22;;
25107;SDS011;13090;53.422;7.670;2023-04-01T18:23:39;7.63;;;4.07;;
25107;SDS011;13090;53.422;7.670;2023-04-01T18:28:57;9.05;;;4.70;;
25107;SDS011;13090;53.422;7.670;2023-04-01T18:34:06;10.43;;;4.57;;
25107;SDS011;13090;53.422;7.670;2023-04-01T18:39:15;9.05;;;4.40;;
25107;SDS011;13090;53.422;7.670;2023-04-01T18:44:25;10.90;;;4.70;;
25107;SDS011;13090;53.422;7.670;2023-04-01T18:49:33;9.65;;;3.95;;
25107;SDS011;13090;53.422;7.670;2023-04-01T18:54:44;7.78;;;4.25;;
25107;SDS011;13090;53.422;7.670;2023-04-01T18:59:55;8.85;;;3.60;;
25107;SDS011;13090;53.422;7.670;2023-04-01T19:05:07;11.90;;;3.92;;
25107;SDS011;13090;53.422;7.670;2023-04-01T19:10:15;6.35;;;3.17;;
25107;SDS011;13090;53.422;7.670;2023-04-01T19:15:29;8.15;;;3.72;;
25107;SDS011;13090;53.422;7.670;2023-04-01T19:20:41;7.90;;;2.92;;
25107;SDS011;13090;53.422;7.670;2023-04-01T19:25:48;5.70;;;2.92;;
25107;SDS011;13090;53.422;7.670;2023-04-01T19:30:55;8.35;;;3.50;;
25107;SDS011;13090;53.422;7.670;2023-04-01T19:36:03;6.82;;;3.47;;
25107;SDS011;13090;53.422;7.670;2023-04-01T19:41:16;12.10;;;3.35;;
25107;SDS011;13090;53.422;7.670;2023-04-01T19:46:41;3.50;;;2.73;;
25107;SDS011;13090;53.422;7.670;2023-04-01T19:51:48;6.00;;;3.50;;
25107;SDS011;13090;53.422;7.670;2023-04-01T19:57:00;11.68;;;3.63;;
25107;SDS011;13090;53.422;7.670;2023-04-01T20:02:23;9.18;;;3.45;;
25107;SDS011;13090;53.422;7.670;2023-04-01T20:07:47;8.10;;;2.97;;
25107;SDS011;13090;53.422;7.670;2023-04-01T20:12:57;5.32;;;3.28;;
25107;SDS011;13090;53.422;7.670;2023-04-01T20:18:12;7.47;;;3.40;;
25107;SDS011;13090;53.422;7.670;2023-04-01T20:23:24;6.57;;;2.80;;
25107;SDS011;13090;53.422;7.670;2023-04-01T20:28:37;7.35;;;3.00;;
25107;SDS011;13090;53.422;7.670;2023-04-01T20:33:52;7.30;;;2.95;;
25107;SDS011;13090;53.422;7.670;2023-04-01T20:44:52;7.05;;;2.80;;
25107;SDS011;13090;53.422;7.670;2023-04-01T20:50:11;8.45;;;3.30;;
25107;SDS011;13090;53.422;7.670;2023-04-01T21:00:57;6.65;;;2.55;;
25107;SDS011;13090;53.422;7.670;2023-04-01T21:06:12;5.05;;;2.15;;
25107;SDS011;13090;53.422;7.670;2023-04-01T21:11:46;6.30;;;2.43;;
25107;SDS011;13090;53.422;7.670;2023-04-01T21:16:58;7.57;;;3.03;;
25107;SDS011;13090;53.422;7.670;2023-04-01T21:27:46;5.35;;;2.15;;
25107;SDS011;13090;53.422;7.670;2023-04-01T21:33:06;7.45;;;2.70;;
25107;SDS011;13090;53.422;7.670;2023-04-01T21:38:27;8.90;;;2.50;;
25107;SDS011;13090;53.422;7.670;2023-04-01T21:43:54;8.85;;;2.92;;
25107;SDS011;13090;53.422;7.670;2023-04-01T21:49:25;4.40;;;2.80;;
25107;SDS011;13090;53.422;7.670;2023-04-01T22:00:26;6.33;;;2.20;;
25107;SDS011;13090;53.422;7.670;2023-04-01T22:05:33;8.20;;;2.65;;
25107;SDS011;13090;53.422;7.670;2023-04-01T22:10:45;6.53;;;2.33;;
25107;SDS011;13090;53.422;7.670;2023-04-01T22:15:57;10.27;;;2.60;;
25107;SDS011;13090;53.422;7.670;2023-04-01T22:21:07;5.72;;;2.67;;
25107;SDS011;13090;53.422;7.670;2023-04-01T22:26:17;5.55;;;2.33;;
25107;SDS011;13090;53.422;7.670;2023-04-01T22:31:26;9.50;;;3.03;;
25107;SDS011;13090;53.422;7.670;2023-04-01T22:36:34;3.80;;;1.77;;
25107;SDS011;13090;53.422;7.670;2023-04-01T22:41:54;5.35;;;1.92;;
25107;SDS011;13090;53.422;7.670;2023-04-01T22:47:02;4.90;;;2.53;;
25107;SDS011;13090;53.422;7.670;2023-04-01T22:52:11;4.82;;;2.42;;
25107;SDS011;13090;53.422;7.670;2023-04-01T22:57:34;4.80;;;2.50;;
25107;SDS011;13090;53.422;7.670;2023-04-01T23:02:42;6.55;;;2.60;;
25107;SDS011;13090;53.422;7.670;2023-04-01T23:07:51;6.18;;;2.83;;
25107;SDS011;13090;53.422;7.670;2023-04-01T23:13:03;6.57;;;2.60;;
25107;SDS011;13090;53.422;7.670;2023-04-01T23:18:12;10.93;;;2.97;;
25107;SDS011;13090;53.422;7.670;2023-04-01T23:23:23;8.00;;;2.47;;
25107;SDS011;13090;53.422;7.670;2023-04-01T23:28:38;5.00;;;2.38;;
25107;SDS011;13090;53.422;7.670;2023-04-01T23:33:49;4.63;;;2.22;;
25107;SDS011;13090;53.422;7.670;2023-04-01T23:38:55;4.53;;;1.90;;
25107;SDS011;13090;53.422;7.670;2023-04-01T23:44:01;6.82;;;2.58;;
25107;SDS011;13090;53.422;7.670;2023-04-01T23:49:09;7.40;;;2.40;;
25107;SDS011;13090;53.422;7.670;2023-04-01T23:54:17;8.18;;;2.90;;
25107;SDS011;13090;53.422;7.670;2023-04-01T23:59:27;8.07;;;2.50;;
